Flight Track Log - Related Links

Times and Time Zones

All times are in EDT time to prevent confusion due to time zone crossing. See the EJM826 flight status page for this flight to view local times or setup timezone preferences in your user account.

Time Position Orientation Groundspeed Altitude Reporting Facility
EDT Latitude Longitude Course Direction KTS MPH feet Rate Location/Type
Thu 03:15:46 PM 24.7544 -81.0119 338° Northwest 179 206 2,200  Level Miami Center
Thu 03:16:48 PM 24.8069 -81.0436 331° Northwest 224 258 5,500 3,048 Climbing Miami Center
Thu 03:17:50 PM 24.8606 -81.1144 310° West 240 276 8,500 2,565 Climbing Miami Center
Thu 03:18:52 PM 24.9125 -81.1850 309° West 267 307 10,800 1,694 Climbing Miami Center
Thu 03:19:54 PM 24.9703 -81.2633 309° West 304 350 12,000 532 Climbing Miami Center
Thu 03:20:56 PM 25.0372 -81.3506 310° West 354 407 11,900 48 Descending Miami Center
Thu 03:21:00 PM 25.1741 -81.3051 338° Northwest  Level FlightAware Approximate
Thu 03:21:58 PM 25.1003 -81.4336 310° West 360 414 12,100  Level Miami Center
Thu 03:23:00 PM 25.1611 -81.5444 301° West 357 411 14,400 2,323 Climbing Miami Center
Thu 03:24:02 PM 25.2108 -81.6411 300° West 363 418 16,900 2,468 Climbing Miami Center
Thu 03:25:04 PM 25.2608 -81.7397 299° West 357 411 19,500 1,984 Climbing Miami Center
Thu 03:26:06 PM 25.3086 -81.8331 300° West 350 403 21,000 1,500 Climbing Miami Center
Thu 03:27:08 PM 25.3600 -81.9328 300° West 369 425 22,600 1,452 Climbing Miami Center
Thu 03:28:10 PM 25.4089 -82.0275 300° West 374 430 24,000 1,597 Climbing Miami Center
Thu 03:29:12 PM 25.4722 -82.1506 300° West 381 438 25,900 1,597 Climbing Miami Center
Thu 03:30:14 PM 25.5267 -82.2558 300° West 389 448 27,300 1,258 Climbing Miami Center
Thu 03:31:16 PM 25.5806 -82.3636 299° West 396 456 28,500 1,210 Climbing Miami Center
Thu 03:32:18 PM 25.6350 -82.4725 299° West 401 461 29,800 1,258 Climbing Miami Center
Thu 03:33:20 PM 25.6919 -82.5833 300° West 413 475 31,100 1,306 Climbing Miami Center
Thu 03:34:22 PM 25.7594 -82.7183 299° West 415 478 32,500 1,452 Climbing Miami Center
Thu 03:35:24 PM 25.8156 -82.8308 299° West 416 479 34,100 1,452 Climbing Miami Center
Thu 03:36:26 PM 25.8719 -82.9428 299° West 418 481 35,500 1,839 Climbing Miami Center
Thu 03:37:28 PM 25.9281 -83.0561 299° West 413 475 37,900 1,984 Climbing Miami Center
Thu 03:38:30 PM 25.9794 -83.1583 299° West 384 442 39,600 1,016 Climbing Miami Center
Thu 03:39:32 PM 26.0319 -83.2628 299° West 386 444 40,000 194 Climbing Miami Center
Thu 03:40:34 PM 26.0875 -83.3742 299° West 408 470 40,000  Level Miami Center
Thu 03:41:36 PM 26.1533 -83.5089 299° West 411 473 40,000  Level Miami Center
Thu 03:42:38 PM 26.2089 -83.6206 299° West 412 474 40,000  Level Miami Center
Thu 03:43:40 PM 26.2633 -83.7331 298° West 412 474 40,000 48 Level Miami Center
Thu 03:44:42 PM 26.3194 -83.8450 299° West 413 475 40,100 532 Climbing Miami Center
Thu 03:45:44 PM 26.3736 -83.9558 299° West 411 473 41,100 968 Climbing Miami Center
Thu 03:46:46 PM 26.4278 -84.0661 299° West 409 471 42,100 919 Climbing Miami Center
Thu 03:47:48 PM 26.4803 -84.1756 298° West 405 466 43,000 435 Climbing Miami Center
Thu 03:48:50 PM 26.5467 -84.3092 299° West 407 468 43,000  Level Miami Center
Thu 03:49:52 PM 26.6022 -84.4231 299° West 415 478 43,000 -48 Level Miami Center
Thu 03:50:54 PM 26.6569 -84.5364 298° West 415 478 42,900  Descending Miami Center
Thu 03:51:45 PM 26.7022 -84.6300 298° West 425 489 43,000 53 Climbing Houston Center
Thu 03:52:47 PM 26.7575 -84.7447 298° West 424 488 43,000  Level Houston Center
Thu 03:53:49 PM 26.8233 -84.8814 298° West 421 484 43,000  Level Houston Center
Thu 03:54:51 PM 26.8783 -84.9961 298° West 420 483 43,000  Level Houston Center
Thu 03:55:53 PM 26.9336 -85.1119 298° West 420 483 43,000  Level Houston Center
Thu 03:56:56 PM 26.9889 -85.2269 298° West 420 483 43,000  Level Houston Center
Thu 03:57:58 PM 27.0439 -85.3436 298° West 420 483 43,000  Level Houston Center
Thu 03:59:00 PM 27.1061 -85.4744 298° West 424 488 43,000  Level Houston Center
Thu 03:59:49 PM 27.1522 -85.5733 298° West 417 480 43,000  Level Jacksonville Center
Thu 04:00:49 PM 27.2081 -85.6936 298° West 417 480 43,000  Level Jacksonville Center
Thu 04:01:49 PM 27.2636 -85.8211 296° West 423 487 43,000  Level Jacksonville Center
Thu 04:02:49 PM 27.3172 -85.9325 298° West 416 479 43,000  Level Jacksonville Center
Thu 04:03:49 PM 27.3708 -86.0461 298° West 416 479 43,000  Level Jacksonville Center
Thu 04:04:49 PM 27.4261 -86.1669 297° West 416 479 43,000  Level Jacksonville Center
Thu 04:05:49 PM 27.4817 -86.2811 299° West 414 476 43,000  Level Jacksonville Center
Thu 04:06:49 PM 27.5350 -86.3950 298° West 419 482 43,000  Level Jacksonville Center
Thu 04:07:49 PM 27.5900 -86.5186 297° West 415 478 43,000  Level Jacksonville Center
Thu 04:08:49 PM 27.6411 -86.6233 299° West 409 471 43,000  Level Jacksonville Center
Thu 04:09:49 PM 27.6958 -86.7472 297° West 411 473 43,000  Level Jacksonville Center
Thu 04:10:49 PM 27.7508 -86.8667 298° West 423 487 43,000  Level Jacksonville Center
Thu 04:11:26 PM 27.7803 -86.9242 300° West 419 482 43,000  Level Houston Center
Thu 04:12:28 PM 27.8344 -87.0442 297° West 419 482 43,000  Level Houston Center
Thu 04:13:31 PM 27.8867 -87.1597 297° West 419 482 43,000  Level Houston Center
Thu 04:14:33 PM 27.9406 -87.2772 297° West 420 483 43,000  Level Houston Center
Thu 04:15:35 PM 28.0042 -87.4169 297° West 420 483 43,000  Level Houston Center
Thu 04:16:37 PM 28.0575 -87.5361 297° West 420 483 43,000  Level Houston Center
Thu 04:17:39 PM 28.1100 -87.6547 297° West 420 483 43,000  Level Houston Center
Thu 04:18:41 PM 28.1633 -87.7717 297° West 420 483 43,000  Level Houston Center
Thu 04:19:44 PM 28.2158 -87.8889 297° West 420 483 43,000  Level Houston Center
Thu 04:20:46 PM 28.2783 -88.0300 297° West 420 483 43,000  Level Houston Center
Thu 04:21:48 PM 28.3306 -88.1486 297° West 419 482 43,000  Level Houston Center
Thu 04:22:50 PM 28.3814 -88.2664 296° West 419 482 43,000  Level Houston Center
Thu 04:23:52 PM 28.4342 -88.3839 297° West 419 482 43,000  Level Houston Center
Thu 04:24:54 PM 28.4867 -88.5022 297° West 419 482 43,000  Level Houston Center
Thu 04:25:57 PM 28.5389 -88.6222 296° West 420 483 43,000  Level Houston Center
Thu 04:26:59 PM 28.6006 -88.7650 296° West 420 483 43,000  Level Houston Center
Thu 04:28:01 PM 28.6531 -88.8833 297° West 422 486 43,000  Level Houston Center
Thu 04:29:03 PM 28.7044 -89.0028 296° West 420 483 43,000  Level Houston Center
Thu 04:30:05 PM 28.7553 -89.1194 296° West 418 481 43,000  Level Houston Center
Thu 04:31:07 PM 28.8067 -89.2378 296° West 417 480 43,000  Level Houston Center
Thu 04:32:10 PM 28.8575 -89.3583 296° West 418 481 43,000  Level Houston Center
Thu 04:33:13 PM 28.9186 -89.5011 296° West 418 481 43,000  Level Houston Center
Thu 04:34:14 PM 28.9708 -89.6222 296° West 420 483 43,000  Level Houston Center
Thu 04:35:16 PM 29.0228 -89.7433 296° West 422 486 43,000  Level Houston Center
Thu 04:36:18 PM 29.0750 -89.8669 296° West 427 491 43,000  Level Houston Center
Thu 04:37:20 PM 29.1000 -90.0006 282° West 430 495 43,000  Level Houston Center
Thu 04:38:23 PM 29.1103 -90.1411 275° West 440 506 43,000  Level Houston Center
Thu 04:39:25 PM 29.1211 -90.3078 274° West 440 506 43,000  Level Houston Center
Thu 04:40:27 PM 29.1292 -90.4450 274° West 435 501 43,000  Level Houston Center
Thu 04:41:29 PM 29.1383 -90.5833 274° West 436 502 43,000  Level Houston Center
Thu 04:42:31 PM 29.1469 -90.7178 274° West 430 495 43,000  Level Houston Center
Thu 04:43:33 PM 29.1542 -90.8517 274° West 427 491 43,000  Level Houston Center
Thu 04:49:05 PM 29.1289 -91.5451 259° West 422 486 43,000  Level FlightAware ADS-B (KHOU)
Thu 04:49:36 PM 29.1070 -91.6730 259° West 422 486 43,000  Level FlightAware ADS-B (KHOU)
Thu 04:49:56 PM 29.1000 -91.7145 259° West 422 486 43,000  Level FlightAware ADS-B (KHOU)
Thu 04:52:52 PM 29.1101 -92.0799 259° West 422 486 43,000  Level FlightAware ADS-B (KHOU)
Thu 04:53:09 PM 29.1186 -92.1408 280° West 420 483 43,000  Level FlightAware ADS-B (KHOU)
Thu 04:53:41 PM 29.1269 -92.2004 280° West 421 484 43,000  Level FlightAware ADS-B (KHOU)
Thu 04:54:09 PM 29.1368 -92.2722 279° West 423 487 43,000  Level FlightAware ADS-B (KHOU)
Thu 04:54:41 PM 29.1461 -92.3396 279° West 423 487 43,000  Level FlightAware ADS-B (KHOU)
Thu 04:55:11 PM 29.1556 -92.4082 279° West 420 483 43,000  Level FlightAware ADS-B (KHOU)
Thu 04:55:42 PM 29.1649 -92.4759 279° West 418 481 43,000  Level FlightAware ADS-B (KHOU)
Thu 04:56:11 PM 29.1735 -92.5393 279° West 418 481 43,000  Level FlightAware ADS-B (KHOU)
Thu 04:56:38 PM 29.1817 -92.5996 279° West 419 482 43,000  Level FlightAware ADS-B (KHOU)
Thu 04:57:11 PM 29.1909 -92.6673 279° West 417 480 43,000  Level FlightAware ADS-B (KHOU)
Thu 04:57:40 PM 29.1997 -92.7326 279° West 417 480 43,000  Level FlightAware ADS-B (KHOU)
Thu 04:58:11 PM 29.2092 -92.8029 279° West 417 480 43,000  Level FlightAware ADS-B (KHOU)
Thu 04:58:41 PM 29.2169 -92.8599 279° West 417 480 43,000  Level FlightAware ADS-B (KHOU)
Thu 04:59:11 PM 29.2264 -92.9313 279° West 415 478 43,000 -857 Level FlightAware ADS-B (KHOU)
Thu 04:59:51 PM 29.2368 -93.0101 279° West 417 480 42,000 -1,714 Descending FlightAware ADS-B (KHOU)
Thu 05:00:21 PM 29.2461 -93.0804 279° West 430 495 41,000 -1,971 Descending FlightAware ADS-B (KHOU)
Thu 05:01:01 PM 29.2577 -93.1681 279° West 444 511 39,700 -1,944 Descending FlightAware ADS-B (KHOU)
Thu 05:01:32 PM 29.2683 -93.2485 279° West 440 506 38,700 -2,034 Descending FlightAware ADS-B (KHOU)
Thu 05:02:00 PM 29.2771 -93.3154 279° West 447 514 37,700 -2,000 Descending FlightAware ADS-B (KHOU)
Thu 05:02:32 PM 29.2867 -93.3898 279° West 455 524 36,700 -1,967 Descending FlightAware ADS-B (KHOU)
Thu 05:03:01 PM 29.2951 -93.4552 279° West 456 525 35,700 -2,000 Descending FlightAware ADS-B (KHOU)
Thu 05:03:32 PM 29.3046 -93.5285 279° West 457 526 34,700 -1,967 Descending FlightAware ADS-B (KHOU)
Thu 05:04:02 PM 29.3142 -93.6031 279° West 456 525 33,700 -2,000 Descending FlightAware ADS-B (KHOU)
Thu 05:04:32 PM 29.3236 -93.6766 279° West 454 522 32,700 -2,000 Descending FlightAware ADS-B (KHOU)
Thu 05:05:02 PM 29.3324 -93.7465 279° West 441 507 31,700 -2,034 Descending FlightAware ADS-B (KHOU)
Thu 05:05:31 PM 29.3410 -93.8134 279° West 435 501 30,700 -2,000 Descending FlightAware ADS-B (KHOU)
Thu 05:06:02 PM 29.3496 -93.8823 278° West 431 496 29,700 -1,967 Descending FlightAware ADS-B (KHOU)
Thu 05:06:32 PM 29.3528 -93.9509 274° West 428 493 28,700 -2,034 Descending FlightAware ADS-B (KHOU)
Thu 05:07:01 PM 29.3563 -94.0126 274° West 423 487 27,700 -2,034 Descending FlightAware ADS-B (KHOU)
Thu 05:07:31 PM 29.3603 -94.0820 274° West 419 482 26,700 -1,967 Descending FlightAware ADS-B (KHOU)
Thu 05:08:02 PM 29.3642 -94.1507 274° West 414 476 25,700 -1,967 Descending FlightAware ADS-B (KHOU)
Thu 05:08:32 PM 29.3679 -94.2171 274° West 408 470 24,700 -2,000 Descending FlightAware ADS-B (KHOU)
Thu 05:09:02 PM 29.3717 -94.2812 275° West 406 467 23,700 -2,100 Descending FlightAware ADS-B (KHOU)
Thu 05:09:32 PM 29.3760 -94.3457 275° West 406 467 22,600 -2,600 Descending FlightAware ADS-B (KHOU)
Thu 05:10:02 PM 29.3816 -94.4092 279° West 400 460 21,100 -2,847 Descending FlightAware ADS-B (KHOU)
Thu 05:10:31 PM 29.3884 -94.4706 277° West 388 447 19,800 -2,644 Descending FlightAware ADS-B (KHOU)
Thu 05:11:01 PM 29.3945 -94.5311 277° West 377 434 18,500 -2,600 Descending FlightAware ADS-B (KHOU)
Thu 05:11:31 PM 29.4005 -94.5892 277° West 370 426 17,200 -2,852 Descending FlightAware ADS-B (KHOU)
Thu 05:12:02 PM 29.4073 -94.6485 279° West 358 412 15,600 -3,143 Descending FlightAware ADS-B (KHOU)
Thu 05:12:13 PM 29.4117 -94.6677 287° West 324 373 15,000 -2,800 Descending FlightAware ADS-B
Thu 05:13:17 PM 29.4145 -94.6776 288° West 323 372 12,100 -1,920 Descending FlightAware ADS-B
Thu 05:15:08 PM 29.5095 -94.9384 293° West 291 335 9,400 -1,353 Descending FlightAware ADS-B
Thu 05:15:30 PM 29.5204 -94.9695 293° West 286 329 9,100 -982 Descending FlightAware ADS-B
Thu 05:16:03 PM 29.5379 -95.0172 293° West 298 343 8,500 -983 Descending FlightAware ADS-B
Thu 05:17:26 PM 29.5799 -95.1377 292° West 293 337 7,200 -881 Descending FlightAware ADS-B
Thu 05:17:52 PM 29.5877 -95.1741 282° West 280 322 6,900 -652 Descending FlightAware ADS-B (KHOU)
Thu 05:18:12 PM 29.5927 -95.2035 282° West 279 321 6,700 -514 Descending FlightAware ADS-B (KHOU)
Thu 05:18:27 PM 29.5964 -95.2247 282° West 279 321 6,600 -600 Descending FlightAware ADS-B (KHOU)
Thu 05:18:42 PM 29.6003 -95.2471 282° West 279 321 6,400 -563 Descending FlightAware ADS-B (KHOU)
Thu 05:18:59 PM 29.6046 -95.2713 282° West 274 315 6,300 -375 Descending FlightAware ADS-B (EBAW / ANR)
Thu 05:19:14 PM 29.6086 -95.2938 282° West 263 303 6,200 -343 Descending FlightAware ADS-B (EBAW / ANR)
Thu 05:19:34 PM 29.6133 -95.3194 283° West 239 275 6,100 -686 Descending FlightAware ADS-B (EBAW / ANR)
Thu 05:19:49 PM 29.6173 -95.3381 285° West 234 269 5,800 -1,600 Descending FlightAware ADS-B (EBAW / ANR)
Thu 05:20:04 PM 29.6214 -95.3560 285° West 238 274 5,300 -1,929 Descending FlightAware ADS-B (EBAW / ANR)
Thu 05:20:17 PM 29.6250 -95.3714 287° West 242 278 4,900 -2,000 Descending FlightAware ADS-B (KHOU)
Thu 05:20:22 PM 29.6268 -95.3774 291° West 244 281 4,700 -2,000 Descending FlightAware ADS-B (KHOU)
Thu 05:20:32 PM 29.6318 -95.3892 300° West 248 285 4,400 -2,000 Descending FlightAware ADS-B (KHOU)
Thu 05:20:37 PM 29.6349 -95.3945 307° West 250 288 4,200 -2,500 Descending FlightAware ADS-B (KHOU)
Thu 05:20:44 PM 29.6412 -95.4020 317° Northwest 251 289 3,900 -1,565 Descending FlightAware ADS-B (EBAW / ANR)
Thu 05:21:00 PM 29.6538 -95.4159 316° Northwest 246 283 3,600 -1,400 Descending FlightAware ADS-B (EBAW / ANR)
Thu 05:21:14 PM 29.6656 -95.4301 313° West 244 281 3,200 -1,241 Descending FlightAware ADS-B (EBAW / ANR)
Thu 05:21:29 PM 29.6716 -95.4374 319° Northwest 234 269 3,000 -571 Descending FlightAware ADS-B (EBAW / ANR)
Thu 05:21:35 PM 29.6820 -95.4466 331° Northwest 230 265 3,000 -600 Level FlightAware ADS-B (EBAW / ANR)
Thu 05:21:39 PM 29.6855 -95.4482 342° North 228 262 2,900 -667 Descending FlightAware ADS-B (EBAW / ANR)
Thu 05:21:44 PM 29.6910 -95.4494 352° North 228 262 2,900 -600 Level FlightAware ADS-B (EBAW / ANR)
Thu 05:21:49 PM 29.6975 -95.4491 North 228 262 2,800 -1,200 Descending FlightAware ADS-B (EBAW / ANR)
Thu 05:21:54 PM 29.7022 -95.4478 18° North 227 261 2,700 -600 Descending FlightAware ADS-B (EBAW / ANR)
Thu 05:21:59 PM 29.7057 -95.4460 27° Northeast 226 260 2,700 -600 Level FlightAware ADS-B (EBAW / ANR)
Thu 05:22:04 PM 29.7106 -95.4421 38° Northeast 223 257 2,600 -1,200 Descending FlightAware ADS-B (EBAW / ANR)
Thu 05:22:09 PM 29.7149 -95.4370 49° Northeast 222 255 2,500 -1,200 Descending FlightAware ADS-B (EBAW / ANR)
Thu 05:22:14 PM 29.7174 -95.4324 58° Northeast 219 252 2,400 -923 Descending FlightAware ADS-B (EBAW / ANR)
Thu 05:22:22 PM 29.7205 -95.4246 67° East 217 250 2,300 -462 Descending FlightAware ADS-B (KHOU)
Thu 05:22:27 PM 29.7221 -95.4196 71° East 216 249 2,300 -800 Level FlightAware ADS-B (KHOU)
Thu 05:22:37 PM 29.7249 -95.4080 77° East 212 244 2,100 -480 Descending FlightAware ADS-B (KHOU)
Thu 05:22:52 PM 29.7271 -95.3920 82° East 201 231 2,100  Level FlightAware ADS-B (KHOU)
Thu 05:22:57 PM 29.7275 -95.3865 88° East 199 229 2,100  Level FlightAware ADS-B (KHOU)
Thu 05:23:01 PM 29.7271 -95.3814 96° East 196 226 2,100 857 Level FlightAware ADS-B (KHOU)
Thu 05:23:04 PM 29.7265 -95.3787 103° East 193 222 2,200 750 Climbing FlightAware ADS-B (EBAW / ANR)
Thu 05:23:09 PM 29.7249 -95.3742 115° Southeast 187 215 2,200 -545 Level FlightAware ADS-B (EBAW / ANR)
Thu 05:23:15 PM 29.7222 -95.3699 127° Southeast 183 211 2,100 -857 Descending FlightAware ADS-B (EBAW / ANR)
Thu 05:23:30 PM 29.7139 -95.3595 132° Southeast 175 201 1,900 -828 Descending FlightAware ADS-B (EBAW / ANR)
Thu 05:23:44 PM 29.7062 -95.3502 133° Southeast 165 190 1,700 -800 Descending FlightAware ADS-B (EBAW / ANR)
Thu 05:24:00 PM 29.6979 -95.3401 133° Southeast 162 186 1,500 -800 Descending FlightAware ADS-B (EBAW / ANR)
Thu 05:24:14 PM 29.6904 -95.3315 135° Southeast 152 175 1,300 -1,034 Descending FlightAware ADS-B (EBAW / ANR)
Thu 05:24:29 PM 29.6848 -95.3253 135° Southeast 154 177 1,000 -720 Descending FlightAware ADS-B (EBAW / ANR)
Thu 05:25:04 PM 29.6677 -95.3052 134° Southeast 123 142 700 -667 Descending FlightAware ADS-B (EBAW / ANR)
Thu 05:25:23 PM 29.6606 -95.2968 133° Southeast 116 133 400 -621 Descending FlightAware ADS-B (EBAW / ANR)
Thu 05:26:02 PM 29.6447 -95.2764 133° Southeast 151 174 100 -462 Descending Houston Center

Login

Don't have an account? Register now (free) for customized features, flight alerts, and more!